mardi 22 avril 2014

ALERTE SPOTTING 22/04/14


320 F-GHQE Air Corsica (blanc avec titre)
   XK4501/XK4500   07h35/08h30

320 EC-JZQ Vueling (stiskers Thanks)
   VY8010/VY8011  07h40/08h15

319 G-EZBF easyJet (couleur Inverness)
   U24242/U24243  09h05/09h35

32A EC-LVP Vueling (couleur Linking Europe)
          dpt VY1983 06h50
      VY1984/VY1985   12h05/12h45
   VY1986/VY8190   17h25/18h15
 arv  VY8191 22h15

73H TC-AZP Pegasus (sticker Asia)
   PC873/PC874  17h40/18h30

73H CN-RGN RAM (sticker 50th 737)
   AT764/AT765   /17h30

343 CS-TQM blanc
  CRL991A/CRL090   18h55/19h55

744 EC-LNA Pullmantur Air
    dpt  AT643  11h20
     AT640/AT641  19H10/21H10

 Manque les prévisions de : certains AB / AH / AZ / BA / BE / IB / KM / TP / TU
*** Heures en Local Time **
Prévisions matinales soumises à modifications de dernières minute.
 Voir le log du mois pour la version 'définitive' de la journée: 
 http://www.airkalo.com/ORLYAVIATION/Logdumois.html

le TAF de la journée:
METAR: LFPO 220230Z 25003KT 9999 SCT036 BKN053 11/08 Q1007 NOSIG=
TAF LONG: LFPO 212300Z 2200/2306 VRB02KT 9999 BKN025 PROB30 TEMPO 2203/2206
BKN012 BECMG 2208/2210 20006KT TEMPO 2211/2218 SHRA BKN030TCU PROB30
TEMPO 2215/2218 20010G30KT 4000 -TSRA SCT035CB BKN040 PROB30 TEMPO
2302/2306 4000 BR BKN007=